Accueil
METAR-TAF:

METAR-TAF

Aéroports :

Aéroport de Chibougamau-Chapais

Chibougamau, Québec, Canada

latitude: 49-46N, longitude: 074-32W, altitude: 388 m

Observation

Le bulletin a été fait il y a 23 minutes, à 00:00 UTC
Vent 5 kt de est/nord-est
Température 15°C
Humidité 33%
Pression 1007 hPa
Visibilité: 14.5 km
Nuages fragmentés à une hauteur de 7500 ft

METAR: CYMT 030000Z AUTO 07005KT 9SM BKN075 15/M01 A2975 RMK SLP084 DENSITY ALT 1700FT

Heure: 20:23 (00:23 UTC)

Prévision

Le bulletin a été fait il y a 6 heures et 45 minutes, à 17:38 UTC
Prévision valable du 02 à 18 UTC au 02 à 24 UTC
Vent 5 kt de est
Visibilité: 10 km
Nuages épars à une hauteur de 6000 ft
Temporairement
du 02 à 18 UTC au 02 à 24 UTC
Nuages fragmentés à une hauteur de 6000 ft

TAF: CYMT 021738Z 0218/0224 09005KT P6SM SCT060 TEMPO 0218/0224 BKN060 RMK FCST BASED ON AUTO OBS. NXT FCST WILL BE ISSUED AT 031145Z

Observations et prévisions météorologiques de plus de 4000 aéroports (messages METAR et TAF).

Les stations disponibles sont représentées par des disques jaunes et rouges sur la carte.

Passer la souris dessus pour voir le nom de la station.

Cliquer dessus pour voir les observations et prévisions météorologiques.

Pour changer de carte: cliquez sur les boutons verts avec une croix noire pour zoomer, sur le bouton vert avec un tiret pour effectuer un zoom arrière, ou sur les flèches vertes pour les cartes adjacentes.


METAR-TAF: